createdAt,value
2019-01-20T00:03:48.829Z,95937.00
2019-01-20T00:08:56.564Z,95941.00
2019-01-20T00:14:17.406Z,95937.00
2019-01-20T00:19:20.160Z,95937.00
2019-01-20T00:24:41.388Z,95945.00
2019-01-20T00:30:04.033Z,95942.00
2019-01-20T00:35:25.091Z,95932.00
2019-01-20T00:40:27.908Z,95935.00
2019-01-20T00:45:31.631Z,95930.00
2019-01-20T00:50:52.631Z,95924.00
2019-01-20T00:56:06.620Z,95938.00
2019-01-20T01:01:13.499Z,95933.00
2019-01-20T01:06:19.381Z,95926.00
2019-01-20T01:11:33.201Z,95929.00
2019-01-20T01:16:39.352Z,95932.00
2019-01-20T01:21:42.963Z,95932.00
2019-01-20T01:27:04.047Z,95929.00
2019-01-20T01:32:07.971Z,95932.00
2019-01-20T01:37:11.797Z,95926.00
2019-01-20T01:42:16.295Z,95924.00
2019-01-20T01:47:19.817Z,95924.00
2019-01-20T01:52:27.010Z,95925.00
2019-01-20T01:57:48.206Z,95921.00
2019-01-20T02:02:55.855Z,95923.00
2019-01-20T02:08:17.115Z,95919.00
2019-01-20T02:13:31.510Z,95931.00
2019-01-20T02:18:34.373Z,95916.00
2019-01-20T02:23:42.560Z,95918.00
2019-01-20T02:28:46.794Z,95922.00
2019-01-20T02:33:51.608Z,95922.00
2019-01-20T02:38:54.398Z,95918.00
2019-01-20T02:44:15.302Z,95914.00
2019-01-20T02:49:18.172Z,95911.00
2019-01-20T02:54:23.189Z,95916.00
2019-01-20T02:59:29.451Z,95912.00
2019-01-20T03:04:32.740Z,95909.00
2019-01-20T03:09:38.983Z,95916.00
2019-01-20T03:14:41.859Z,95923.00
2019-01-20T03:19:45.720Z,95916.00
2019-01-20T03:24:48.489Z,95915.00
2019-01-20T03:29:51.618Z,95914.00
2019-01-20T03:34:55.830Z,95912.00
2019-01-20T03:40:06.352Z,95908.00
2019-01-20T03:45:15.431Z,95909.00
2019-01-20T03:50:18.633Z,95905.00
2019-01-20T03:55:21.419Z,95904.00
2019-01-20T04:00:25.697Z,95906.00
2019-01-20T04:05:32.863Z,95899.00
2019-01-20T04:10:40.499Z,95904.00
2019-01-20T04:15:53.666Z,95901.00
2019-01-20T04:20:56.453Z,95896.00
2019-01-20T04:26:05.173Z,95901.00
2019-01-20T04:31:26.083Z,95901.00
2019-01-20T04:36:33.438Z,95896.00
2019-01-20T04:41:55.021Z,95900.00
2019-01-20T04:46:58.612Z,95898.00
2019-01-20T04:52:03.835Z,95909.00
2019-01-20T04:57:13.200Z,95903.00
2019-01-20T05:02:34.334Z,95913.00
2019-01-20T05:07:37.074Z,95910.00
2019-01-20T05:12:41.105Z,95909.00
2019-01-20T05:17:55.094Z,95909.00
2019-01-20T05:22:58.326Z,95911.00
2019-01-20T05:28:19.187Z,95910.00
2019-01-20T05:33:21.800Z,95912.00
2019-01-20T05:38:42.931Z,95910.00
2019-01-20T05:43:50.557Z,95916.00
2019-01-20T05:48:54.727Z,95910.00
2019-01-20T05:54:02.471Z,95918.00
2019-01-20T05:59:07.029Z,95922.00
2019-01-20T06:04:15.272Z,95917.00
2019-01-20T06:09:27.154Z,95917.00
2019-01-20T06:14:34.327Z,95916.00
2019-01-20T06:19:46.624Z,95917.00
2019-01-20T06:24:59.003Z,95922.00
2019-01-20T06:30:10.367Z,95935.00
2019-01-20T06:35:13.484Z,95931.00
2019-01-20T06:40:34.445Z,95941.00
2019-01-20T06:45:41.233Z,95939.00
2019-01-20T06:51:03.216Z,95942.00
2019-01-20T06:56:06.756Z,95960.00
2019-01-20T07:01:10.891Z,95963.00
2019-01-20T07:06:15.477Z,95972.00
2019-01-20T07:11:19.227Z,95976.00
2019-01-20T07:16:22.192Z,95982.00
2019-01-20T07:21:43.408Z,95978.00
2019-01-20T07:26:55.649Z,95987.00
2019-01-20T07:31:58.977Z,95996.00
2019-01-20T07:37:08.387Z,96003.00
2019-01-20T07:42:27.429Z,96003.00
2019-01-20T07:47:51.798Z,96007.00
2019-01-20T07:53:13.672Z,96034.00
2019-01-20T07:58:16.891Z,96001.00
2019-01-20T08:03:19.786Z,96006.00
2019-01-20T08:08:23.911Z,96016.00
2019-01-20T08:13:45.011Z,96008.00
2019-01-20T08:18:57.770Z,96023.00
2019-01-20T08:24:03.082Z,96026.00
2019-01-20T08:29:06.953Z,96021.00
2019-01-20T08:34:28.047Z,96021.00
2019-01-20T08:39:31.096Z,96043.00
2019-01-20T08:44:52.125Z,96039.00
2019-01-20T08:49:54.832Z,96043.00
2019-01-20T08:55:15.876Z,96061.00
2019-01-20T09:00:18.703Z,96062.00
2019-01-20T09:05:40.177Z,96067.00
2019-01-20T09:10:44.249Z,96072.00
2019-01-20T09:16:05.732Z,96075.00
2019-01-20T09:21:08.471Z,96081.00
2019-01-20T09:26:30.789Z,96087.00
2019-01-20T09:31:37.753Z,96086.00
2019-01-20T09:36:58.734Z,96091.00
2019-01-20T09:42:06.853Z,96096.00
2019-01-20T09:47:10.353Z,96089.00
2019-01-20T09:52:16.499Z,96095.00
2019-01-20T09:57:21.768Z,96100.00
2019-01-20T10:02:24.990Z,96094.00
2019-01-20T10:07:32.471Z,96101.00
2019-01-20T10:12:36.787Z,96099.00
2019-01-20T10:17:42.756Z,96102.00
2019-01-20T10:23:45.007Z,96106.00
2019-01-20T10:28:48.228Z,96094.00
2019-01-20T10:34:11.369Z,96096.00
2019-01-20T10:39:14.449Z,96095.00
2019-01-20T10:44:36.028Z,96105.00
2019-01-20T10:49:40.084Z,96101.00
2019-01-20T10:55:02.748Z,96106.00
2019-01-20T11:00:13.249Z,96108.00
2019-01-20T11:05:34.758Z,96113.00
2019-01-20T11:10:44.703Z,96113.00
2019-01-20T11:16:07.242Z,96104.00
2019-01-20T11:21:23.965Z,96114.00
2019-01-20T11:26:46.358Z,96113.00
2019-01-20T11:31:49.058Z,96117.00
2019-01-20T11:37:09.966Z,96104.00
2019-01-20T11:42:12.756Z,96099.00
2019-01-20T11:47:41.793Z,96116.00
2019-01-20T11:52:44.001Z,96105.00
2019-01-20T11:58:07.430Z,96109.00
2019-01-20T12:03:11.095Z,96112.00
2019-01-20T12:08:35.555Z,96101.00
2019-01-20T12:13:38.658Z,96106.00
2019-01-20T12:18:59.713Z,96103.00
2019-01-20T12:24:02.523Z,96105.00
2019-01-20T12:29:25.568Z,96032.00
2019-01-20T12:34:29.168Z,96096.00
2019-01-20T12:39:36.255Z,96114.00
2019-01-20T12:44:39.995Z,96102.00
2019-01-20T12:49:43.587Z,96102.00
2019-01-20T12:54:51.547Z,96099.00
2019-01-20T13:00:16.909Z,96105.00
2019-01-20T13:05:29.846Z,96096.00
2019-01-20T13:10:50.967Z,96103.00
2019-01-20T13:15:56.192Z,96100.00
2019-01-20T13:21:20.344Z,96105.00
2019-01-20T13:26:32.951Z,96095.00
2019-01-20T13:31:39.132Z,96097.00
2019-01-20T13:37:00.011Z,96097.00
2019-01-20T13:42:03.197Z,96087.00
2019-01-20T13:47:06.806Z,96112.00
2019-01-20T13:52:19.083Z,96107.00
2019-01-20T13:57:22.845Z,96107.00
2019-01-20T14:02:28.933Z,96124.00
2019-01-20T14:07:49.797Z,96114.00
2019-01-20T14:13:02.515Z,96112.00
2019-01-20T14:18:07.535Z,96116.00
2019-01-20T14:23:14.572Z,96118.00
2019-01-20T14:28:19.207Z,96129.00
2019-01-20T14:33:29.310Z,96136.00
2019-01-20T14:38:32.969Z,96137.00
2019-01-20T14:43:36.730Z,96144.00
2019-01-20T14:48:48.649Z,96148.00
2019-01-20T14:53:54.877Z,96149.00
2019-01-20T14:58:58.562Z,96154.00
2019-01-20T15:04:04.761Z,96166.00
2019-01-20T15:09:25.518Z,96165.00
2019-01-20T15:14:30.195Z,96166.00
2019-01-20T15:19:51.487Z,96158.00
2019-01-20T15:25:13.967Z,96166.00
2019-01-20T15:30:21.951Z,96169.00
2019-01-20T15:35:34.883Z,96165.00
2019-01-20T15:40:48.071Z,96172.00
2019-01-20T15:45:51.421Z,96182.00
2019-01-20T15:50:59.541Z,96181.00
2019-01-20T15:56:25.788Z,96183.00
2019-01-20T16:01:31.409Z,96193.00
2019-01-20T16:06:36.429Z,96197.00
2019-01-20T16:11:58.601Z,96193.00
2019-01-20T16:17:19.667Z,96197.00
2019-01-20T16:22:22.740Z,96202.00
2019-01-20T16:33:32.692Z,96198.00
2019-01-20T16:38:53.952Z,96203.00
2019-01-20T16:44:15.421Z,96193.00
2019-01-20T16:49:27.340Z,96203.00
2019-01-20T16:54:30.372Z,96213.00
2019-01-20T16:59:51.610Z,96202.00
2019-01-20T17:04:57.220Z,96209.00
2019-01-20T17:16:36.502Z,96228.00
2019-01-20T17:21:57.568Z,96240.00
2019-01-20T17:27:04.678Z,96241.00
2019-01-20T17:32:26.232Z,96246.00
2019-01-20T17:37:29.827Z,96251.00
2019-01-20T17:42:35.100Z,96241.00
2019-01-20T17:47:41.568Z,96249.00
2019-01-20T17:53:03.919Z,96257.00
2019-01-20T17:58:12.290Z,96260.00
2019-01-20T18:03:18.206Z,96270.00
2019-01-20T18:08:30.602Z,96270.00
2019-01-20T18:13:35.292Z,96287.00
2019-01-20T18:18:48.477Z,96291.00
2019-01-20T18:24:09.984Z,96291.00
2019-01-20T18:29:31.296Z,96307.00
2019-01-20T18:34:37.289Z,96310.00
2019-01-20T18:39:42.592Z,96302.00
2019-01-20T18:45:04.811Z,96369.00
2019-01-20T18:50:28.097Z,96331.00
2019-01-20T18:55:50.483Z,96310.00
2019-01-20T19:01:02.038Z,96316.00
2019-01-20T19:06:05.532Z,96317.00
2019-01-20T19:11:10.049Z,96324.00
2019-01-20T19:16:28.357Z,96315.00
2019-01-20T19:21:43.570Z,96305.00
2019-01-20T19:26:57.278Z,96326.00
2019-01-20T19:32:03.806Z,96330.00
2019-01-20T19:37:09.379Z,96329.00
2019-01-20T19:42:17.714Z,96340.00
2019-01-20T19:47:26.163Z,96349.00
2019-01-20T19:52:49.078Z,96348.00
2019-01-20T19:57:56.605Z,96354.00
2019-01-20T20:03:02.705Z,96365.00
2019-01-20T20:08:12.706Z,96358.00
2019-01-20T20:13:25.652Z,96365.00
2019-01-20T20:18:29.978Z,96379.00
2019-01-20T20:23:36.812Z,96380.00
2019-01-20T20:28:44.008Z,96377.00
2019-01-20T20:33:50.884Z,96388.00
2019-01-20T20:38:55.152Z,96386.00
2019-01-20T20:44:18.608Z,96394.00
2019-01-20T20:49:34.148Z,96400.00
2019-01-20T20:54:41.219Z,96399.00
2019-01-20T20:59:51.000Z,96406.00
2019-01-20T21:04:59.795Z,96402.00
2019-01-20T21:10:21.633Z,96411.00
2019-01-20T21:15:24.928Z,96413.00
2019-01-20T21:20:45.729Z,96416.00
2019-01-20T21:25:48.850Z,96422.00
2019-01-20T21:30:57.144Z,96439.00
2019-01-20T21:36:10.250Z,96444.00
2019-01-20T21:41:14.732Z,96446.00
2019-01-20T21:46:23.915Z,96462.00
2019-01-20T21:51:35.952Z,96455.00
2019-01-20T21:56:39.640Z,96475.00
2019-01-20T22:02:00.846Z,96486.00
2019-01-20T22:07:03.630Z,96495.00
2019-01-20T22:12:24.622Z,96496.00
2019-01-20T22:17:28.111Z,96499.00
2019-01-20T22:22:32.345Z,96500.00
2019-01-20T22:27:53.548Z,96486.00
2019-01-20T22:32:58.443Z,96494.00
2019-01-20T22:38:11.781Z,96503.00
2019-01-20T22:43:19.509Z,96498.00
2019-01-20T22:48:31.775Z,96510.00
2019-01-20T22:53:35.408Z,96515.00
2019-01-20T22:58:43.064Z,96510.00
2019-01-20T23:04:04.316Z,96502.00
2019-01-20T23:09:11.932Z,96512.00
2019-01-20T23:14:15.553Z,96506.00
2019-01-20T23:19:19.555Z,96497.00
2019-01-20T23:24:31.921Z,96503.00
2019-01-20T23:29:45.277Z,96504.00
2019-01-20T23:34:49.024Z,96510.00
2019-01-20T23:40:10.108Z,96504.00
2019-01-20T23:45:14.111Z,96506.00
2019-01-20T23:50:35.437Z,96510.00
2019-01-20T23:55:47.930Z,96509.00
